Time;durP1;ratioP1;P1;durP2;ratioP2;P2;SDS_P1;SDS_P2;PMS_P1;PMS_P2;Temp;Humidity;BMP_temperature;BMP_pressure;BME280_temperature;BME280_humidity;BME280_pressure;Samples;Min_cycle;Max_cycle;Signal;HPM_P1;HPM_P2
2021/03/28 00:01:40;;;;;;;4.55;2.00;;;9.70;91.00;;;;;;5065995;28;20028;-60
2021/03/28 00:04:10;;;;;;;4.07;1.90;;;9.70;90.90;;;;;;5064936;28;20028;-61
2021/03/28 00:06:49;;;;;;;4.53;1.73;;;9.70;90.60;;;;;;5065276;28;20036;-61
2021/03/28 00:09:33;;;;;;;4.03;2.00;;;9.50;91.60;;;;;;5065439;28;20113;-61
2021/03/28 00:12:04;;;;;;;4.35;2.22;;;9.20;91.80;;;;;;5066223;28;20035;-61
2021/03/28 00:14:49;;;;;;;3.70;1.80;;;9.20;92.30;;;;;;5065918;28;20016;-61
2021/03/28 00:17:24;;;;;;;4.75;2.05;;;9.10;92.70;;;;;;5059512;28;20134;-61
2021/03/28 00:19:59;;;;;;;5.10;1.80;;;9.10;93.60;;;;;;5063619;28;20189;-61
2021/03/28 00:22:44;;;;;;;4.40;2.45;;;9.10;94.50;;;;;;5064755;28;20049;-61
2021/03/28 00:25:32;;;;;;;4.55;2.03;;;9.40;94.10;;;;;;5065110;28;20469;-61
2021/03/28 00:28:01;;;;;;;7.32;2.20;;;9.40;93.80;;;;;;5065902;28;20032;-61
2021/03/28 00:30:31;;;;;;;4.43;2.28;;;9.30;93.60;;;;;;5064931;28;20078;-61
2021/03/28 00:33:18;;;;;;;4.65;2.22;;;9.50;93.70;;;;;;5065203;28;20027;-61
2021/03/28 00:35:46;;;;;;;4.00;1.95;;;9.30;94.10;;;;;;5064935;28;20028;-61
2021/03/28 00:38:43;;;;;;;5.28;2.42;;;9.00;94.00;;;;;;5065022;28;20032;-61
2021/03/28 00:41:14;;;;;;;5.32;2.55;;;9.00;94.80;;;;;;5065033;28;20077;-61
2021/03/28 00:44:03;;;;;;;4.80;2.08;;;8.80;95.70;;;;;;5063795;28;20068;-61
2021/03/28 00:46:43;;;;;;;5.43;2.63;;;8.70;96.10;;;;;;5064254;28;20098;-60
2021/03/28 00:49:29;;;;;;;7.22;2.50;;;8.70;96.90;;;;;;5064634;28;20449;-60
2021/03/28 00:52:00;;;;;;;3.78;1.80;;;8.50;97.40;;;;;;5064911;28;20515;-60
2021/03/28 00:54:51;;;;;;;4.07;1.77;;;8.40;97.80;;;;;;5065736;28;20118;-60
2021/03/28 00:57:39;;;;;;;3.88;2.22;;;8.40;97.70;;;;;;5064828;28;20478;-60
2021/03/28 01:00:11;;;;;;;5.18;2.42;;;8.50;97.20;;;;;;5064920;28;20111;-60
2021/03/28 01:03:02;;;;;;;4.05;1.67;;;8.50;97.30;;;;;;5065031;28;20028;-60
2021/03/28 01:05:47;;;;;;;6.88;2.30;;;8.50;97.70;;;;;;5065323;28;20506;-60
2021/03/28 01:08:23;;;;;;;5.50;2.63;;;8.50;96.90;;;;;;5064944;28;20406;-59
2021/03/28 01:11:14;;;;;;;5.57;2.47;;;8.70;97.10;;;;;;5065063;28;20074;-59
2021/03/28 01:13:40;;;;;;;7.20;2.47;;;8.90;96.30;;;;;;5065008;28;20024;-60
2021/03/28 01:16:34;;;;;;;7.10;2.75;;;8.70;96.20;;;;;;5064516;28;20060;-60
2021/03/28 01:19:05;;;;;;;7.85;2.72;;;8.70;96.20;;;;;;5063975;28;20021;-60
2021/03/28 01:21:49;;;;;;;6.30;2.17;;;8.60;97.00;;;;;;5064571;28;20123;-60
2021/03/28 01:24:21;;;;;;;4.53;1.90;;;8.50;98.20;;;;;;5064905;28;20136;-59
2021/03/28 01:27:16;;;;;;;5.13;2.38;;;8.30;99.80;;;;;;5065025;28;20403;-59
2021/03/28 01:30:07;;;;;;;4.10;2.22;;;8.10;99.90;;;;;;5064473;28;20035;-59
2021/03/28 01:32:38;;;;;;;4.75;2.78;;;8.10;99.90;;;;;;5064582;28;20028;-60
2021/03/28 01:35:10;;;;;;;5.63;1.95;;;7.90;99.90;;;;;;5064653;28;20028;-60
2021/03/28 01:37:55;;;;;;;3.47;1.98;;;8.10;99.10;;;;;;5064973;28;20033;-60
2021/03/28 01:40:29;;;;;;;4.68;1.63;;;8.20;98.30;;;;;;5064425;28;20094;-60
2021/03/28 01:43:12;;;;;;;3.30;2.00;;;8.10;97.80;;;;;;5065125;28;20077;-60
2021/03/28 01:45:52;;;;;;;4.57;1.55;;;8.20;98.00;;;;;;5064503;28;20544;-59
2021/03/28 01:48:31;;;;;;;5.03;1.98;;;8.00;99.90;;;;;;5064113;28;20035;-60
2021/03/28 01:50:56;;;;;;;5.00;1.77;;;7.80;99.90;;;;;;5046838;28;20017;-59
2021/03/28 01:53:40;;;;;;;4.75;1.65;;;7.70;99.90;;;;;;5064336;28;20518;-60
2021/03/28 01:56:25;;;;;;;3.67;1.70;;;7.60;99.90;;;;;;5064969;28;20401;-60
2021/03/28 01:59:23;;;;;;;3.38;2.05;;;7.80;99.90;;;;;;5063395;28;20108;-60
2021/03/28 02:02:15;;;;;;;4.25;1.80;;;7.80;99.90;;;;;;5063043;28;20466;-59
2021/03/28 02:05:05;;;;;;;4.93;1.95;;;8.00;99.90;;;;;;5063957;28;20025;-60
2021/03/28 02:07:52;;;;;;;3.17;1.50;;;7.90;99.90;;;;;;5064032;28;20060;-60
2021/03/28 02:10:45;;;;;;;5.63;2.20;;;8.00;99.90;;;;;;5064023;28;20031;-59
2021/03/28 02:13:31;;;;;;;4.40;1.70;;;7.90;99.90;;;;;;5064493;28;20521;-59
2021/03/28 02:16:12;;;;;;;3.70;1.80;;;7.90;99.90;;;;;;5063357;28;20573;-60
2021/03/28 02:19:06;;;;;;;3.65;1.55;;;7.80;99.90;;;;;;5063721;28;20031;-60
2021/03/28 02:21:53;;;;;;;4.03;2.00;;;7.70;99.90;;;;;;5064027;28;20023;-60
2021/03/28 02:24:28;;;;;;;3.33;1.75;;;7.70;99.90;;;;;;5064093;28;20405;-60
2021/03/28 02:27:04;;;;;;;3.13;1.90;;;7.80;99.90;;;;;;5064289;28;20021;-59
2021/03/28 02:29:38;;;;;;;4.10;1.70;;;7.90;99.90;;;;;;5067776;28;20028;-60
2021/03/28 02:32:06;;;;;;;5.45;2.20;;;7.90;99.90;;;;;;5068063;28;20031;-60
2021/03/28 02:34:42;;;;;;;5.05;1.80;;;7.70;99.90;;;;;;5067670;28;20056;-60
2021/03/28 02:37:36;;;;;;;5.65;1.73;;;7.70;99.90;;;;;;5067810;28;20492;-60
2021/03/28 02:40:10;;;;;;;6.63;1.90;;;7.70;99.90;;;;;;5066448;28;20086;-59
2021/03/28 02:42:58;;;;;;;6.78;2.35;;;7.50;99.90;;;;;;5067707;28;20056;-60
2021/03/28 02:45:27;;;;;;;5.30;1.88;;;7.60;99.90;;;;;;5066163;28;20107;-60
2021/03/28 02:48:05;;;;;;;4.50;1.92;;;7.50;99.90;;;;;;5066935;28;20408;-60
2021/03/28 02:50:53;;;;;;;2.60;1.40;;;7.30;99.90;;;;;;5067177;28;20058;-59
2021/03/28 02:53:39;;;;;;;3.63;1.58;;;7.30;99.90;;;;;;5067640;28;20021;-60
2021/03/28 02:56:17;;;;;;;4.75;1.88;;;7.40;99.90;;;;;;5066880;28;20036;-60
2021/03/28 02:59:07;;;;;;;4.85;2.13;;;7.50;99.90;;;;;;5062353;28;20029;-60
2021/03/28 03:02:03;;;;;;;3.50;1.73;;;7.40;99.90;;;;;;5047158;28;20087;-60
2021/03/28 03:04:43;;;;;;;5.13;1.75;;;7.40;99.90;;;;;;5047292;28;20091;-60
2021/03/28 03:07:11;;;;;;;3.00;1.70;;;7.30;99.90;;;;;;5047973;28;20040;-59
2021/03/28 03:09:52;;;;;;;4.72;1.83;;;7.40;99.90;;;;;;5046613;28;20411;-60
2021/03/28 03:12:42;;;;;;;6.63;2.40;;;7.10;99.90;;;;;;5047690;28;20028;-60
2021/03/28 03:15:39;;;;;;;5.00;2.10;;;7.30;99.90;;;;;;5055808;28;20029;-59
2021/03/28 03:18:32;;;;;;;5.45;2.15;;;7.20;99.90;;;;;;5045991;28;20111;-59
2021/03/28 03:21:45;;;;;;;4.82;2.08;;;7.20;99.90;;;;;;5047455;28;20025;-59
2021/03/28 03:24:32;;;;;;;4.95;2.30;;;7.20;99.90;;;;;;5047669;28;20415;-59
2021/03/28 03:27:19;;;;;;;4.80;2.40;;;7.10;99.90;;;;;;5047090;28;20067;-59
2021/03/28 03:30:12;;;;;;;3.42;1.60;;;7.10;99.90;;;;;;5047008;28;20060;-60
2021/03/28 03:33:11;;;;;;;5.25;2.05;;;7.30;99.90;;;;;;5054292;28;20482;-59
2021/03/28 03:35:40;;;;;;;5.80;2.08;;;7.10;99.90;;;;;;5046646;28;20087;-59
2021/03/28 03:38:12;;;;;;;4.15;2.00;;;6.80;99.90;;;;;;5046933;28;20025;-60
2021/03/28 03:41:07;;;;;;;7.07;2.63;;;6.80;99.90;;;;;;5045754;28;20029;-59
2021/03/28 03:43:48;;;;;;;4.78;2.13;;;6.80;99.90;;;;;;5046685;28;20427;-59
2021/03/28 03:46:28;;;;;;;9.05;2.88;;;7.00;99.90;;;;;;5046555;28;20033;-60
2021/03/28 03:49:15;;;;;;;5.53;2.42;;;7.10;99.90;;;;;;5046525;28;20383;-60
2021/03/28 03:52:09;;;;;;;5.18;2.00;;;7.00;99.90;;;;;;5046409;28;20056;-59
2021/03/28 03:54:54;;;;;;;6.40;2.33;;;7.10;99.90;;;;;;5046117;28;20066;-59
2021/03/28 03:57:39;;;;;;;3.08;1.73;;;7.00;99.90;;;;;;5045136;28;20449;-60
2021/03/28 04:00:14;;;;;;;5.45;2.45;;;7.20;99.90;;;;;;5046082;28;20032;-59
2021/03/28 04:03:15;;;;;;;3.63;2.10;;;7.40;99.90;;;;;;5046632;28;20126;-60
2021/03/28 04:06:12;;;;;;;3.70;2.20;;;7.60;99.90;;;;;;5047157;28;20021;-60
2021/03/28 04:09:08;;;;;;;6.90;2.42;;;7.70;99.90;;;;;;5045982;28;20354;-59
2021/03/28 04:11:46;;;;;;;3.85;1.90;;;7.90;99.90;;;;;;5046027;28;20106;-60
2021/03/28 04:15:09;;;;;;;7.07;2.25;;;7.90;99.90;;;;;;5046845;28;20679;-59
2021/03/28 04:17:56;;;;;;;4.47;2.22;;;7.80;99.90;;;;;;5062932;28;20523;-59
2021/03/28 04:20:32;;;;;;;4.80;2.72;;;7.80;99.90;;;;;;5062695;28;20051;-60
2021/03/28 04:23:20;;;;;;;6.03;2.88;;;7.70;99.90;;;;;;5051568;28;20037;-59
2021/03/28 04:26:05;;;;;;;6.43;2.70;;;7.60;99.90;;;;;;5046054;28;20029;-59
2021/03/28 04:28:50;;;;;;;6.13;3.03;;;7.40;99.90;;;;;;5045533;28;20025;-60
2021/03/28 04:31:40;;;;;;;6.55;2.20;;;7.20;99.90;;;;;;5045930;28;20060;-60
2021/03/28 04:34:29;;;;;;;5.55;2.75;;;7.10;99.90;;;;;;5045744;28;20056;-59
2021/03/28 04:37:34;;;;;;;6.93;2.65;;;6.90;99.90;;;;;;5045624;28;20029;-59
2021/03/28 04:40:28;;;;;;;6.28;2.67;;;6.80;99.90;;;;;;5057433;28;20044;-60
2021/03/28 04:43:06;;;;;;;5.53;2.77;;;6.50;99.90;;;;;;5065819;28;20025;-60
2021/03/28 04:45:41;;;;;;;5.55;2.50;;;6.50;99.90;;;;;;5062426;28;20119;-60
2021/03/28 04:48:44;;;;;;;8.05;2.15;;;6.40;99.90;;;;;;5065236;28;20024;-60
2021/03/28 04:51:23;;;;;;;5.22;2.42;;;6.30;99.90;;;;;;5065280;28;20048;-59
2021/03/28 04:54:17;;;;;;;3.88;2.05;;;6.30;99.90;;;;;;5064822;28;20439;-60
2021/03/28 04:57:00;;;;;;;5.85;2.15;;;6.10;99.90;;;;;;5064908;28;20422;-60
2021/03/28 04:59:59;;;;;;;4.38;1.80;;;6.10;99.90;;;;;;5064732;28;20040;-60
2021/03/28 05:03:04;;;;;;;3.35;1.60;;;6.30;99.90;;;;;;5064763;28;20028;-60
2021/03/28 05:05:47;;;;;;;5.50;2.05;;;6.80;99.90;;;;;;5063855;28;20044;-60
2021/03/28 05:08:46;;;;;;;50.90;15.00;;;6.90;99.90;;;;;;5065645;28;20141;-60
2021/03/28 05:11:39;;;;;;;112.35;37.00;;;7.00;99.90;;;;;;5065931;28;20032;-60
2021/03/28 05:14:28;;;;;;;62.67;21.60;;;7.00;99.90;;;;;;5064702;28;20035;-60
2021/03/28 05:17:02;;;;;;;36.65;12.95;;;6.90;99.90;;;;;;5064066;28;20029;-59
2021/03/28 05:19:52;;;;;;;18.35;6.90;;;6.70;99.90;;;;;;5063505;28;20073;-60
2021/03/28 05:22:56;;;;;;;12.20;4.68;;;6.50;99.90;;;;;;5064969;28;20240;-60
2021/03/28 05:25:39;;;;;;;12.82;3.72;;;6.50;99.90;;;;;;5064696;28;20032;-59
2021/03/28 05:28:23;;;;;;;7.47;3.17;;;6.50;99.90;;;;;;5064866;28;20032;-59
2021/03/28 05:31:18;;;;;;;8.53;3.73;;;6.60;99.90;;;;;;5064348;28;20533;-59
2021/03/28 05:34:03;;;;;;;11.13;3.83;;;6.70;99.90;;;;;;5065429;28;20398;-59
2021/03/28 05:36:40;;;;;;;11.00;4.78;;;6.80;99.90;;;;;;5062793;28;20107;-59
2021/03/28 05:39:33;;;;;;;7.88;3.55;;;6.80;99.90;;;;;;5055048;28;20040;-59
2021/03/28 05:42:27;;;;;;;9.10;3.28;;;6.70;99.90;;;;;;5056613;28;20419;-59
2021/03/28 05:44:59;;;;;;;7.47;3.03;;;6.70;99.90;;;;;;5046566;28;20463;-59
2021/03/28 05:47:47;;;;;;;4.70;2.53;;;6.80;99.90;;;;;;5063591;28;20370;-59
2021/03/28 05:50:45;;;;;;;8.48;2.60;;;6.60;99.90;;;;;;5066492;28;20471;-59
2021/03/28 05:53:59;;;;;;;6.13;2.40;;;6.70;99.90;;;;;;5048036;28;20029;-59
2021/03/28 05:57:06;;;;;;;4.35;2.15;;;6.80;99.90;;;;;;5064699;28;20667;-59
2021/03/28 06:00:02;;;;;;;6.15;2.50;;;6.80;99.90;;;;;;5065768;28;20091;-59
2021/03/28 06:02:49;;;;;;;6.13;2.30;;;6.80;99.90;;;;;;5064877;28;20043;-59
2021/03/28 06:05:51;;;;;;;4.53;2.17;;;6.80;99.90;;;;;;5059850;28;20429;-59
2021/03/28 06:08:17;;;;;;;3.55;1.98;;;6.80;99.90;;;;;;5070073;28;20037;-59
2021/03/28 06:11:07;;;;;;;7.38;2.10;;;6.90;99.90;;;;;;5070334;28;20024;-59
2021/03/28 06:13:54;;;;;;;3.80;1.83;;;6.90;99.90;;;;;;5069690;28;20135;-59
2021/03/28 06:16:45;;;;;;;6.18;1.90;;;7.00;99.90;;;;;;5065426;28;20402;-59
2021/03/28 06:19:33;;;;;;;3.22;1.63;;;6.90;99.90;;;;;;5050998;28;20044;-59
2021/03/28 06:22:16;;;;;;;4.03;1.73;;;7.00;99.90;;;;;;5049850;28;20148;-59
2021/03/28 06:25:06;;;;;;;5.00;2.28;;;7.10;99.90;;;;;;5065640;28;20504;-59
2021/03/28 06:27:56;;;;;;;5.03;1.98;;;7.20;99.90;;;;;;5069055;28;20044;-59
2021/03/28 06:30:46;;;;;;;4.35;2.05;;;7.20;99.90;;;;;;5069334;28;20099;-59
2021/03/28 06:33:30;;;;;;;6.00;2.35;;;7.30;99.90;;;;;;5071937;28;20091;-59
2021/03/28 06:36:02;;;;;;;4.28;2.20;;;7.30;99.90;;;;;;5069590;28;20107;-59
2021/03/28 06:39:05;;;;;;;6.82;3.08;;;7.30;99.90;;;;;;5069412;28;20029;-59
2021/03/28 06:41:42;;;;;;;13.40;5.43;;;7.40;99.90;;;;;;5069197;28;20454;-60
2021/03/28 06:44:36;;;;;;;12.32;6.78;;;7.40;99.90;;;;;;5057109;28;20055;-60
2021/03/28 06:47:38;;;;;;;14.75;7.75;;;7.40;99.90;;;;;;5048645;28;20029;-59
2021/03/28 06:50:22;;;;;;;14.90;7.40;;;7.50;99.90;;;;;;5065927;28;20024;-60
2021/03/28 06:53:10;;;;;;;16.25;7.63;;;7.60;99.90;;;;;;5066211;28;20017;-60
2021/03/28 06:55:42;;;;;;;14.35;7.22;;;7.70;99.90;;;;;;5067052;28;20104;-60
2021/03/28 06:58:41;;;;;;;15.38;7.70;;;7.70;99.90;;;;;;5068148;28;20107;-59
2021/03/28 07:01:29;;;;;;;11.82;6.28;;;7.60;99.90;;;;;;5057133;28;20031;-59
2021/03/28 07:04:19;;;;;;;11.13;4.45;;;7.60;99.90;;;;;;5055815;28;20029;-59
2021/03/28 07:07:18;;;;;;;5.97;3.30;;;7.80;99.90;;;;;;5069880;28;20055;-60
2021/03/28 07:09:46;;;;;;;5.32;2.90;;;7.80;99.90;;;;;;5066129;28;20506;-59
2021/03/28 07:12:42;;;;;;;7.50;2.88;;;8.00;99.90;;;;;;5054989;28;20032;-59
2021/03/28 07:15:38;;;;;;;6.40;2.85;;;8.00;99.90;;;;;;5064477;28;20028;-60
2021/03/28 07:18:31;;;;;;;4.47;2.20;;;7.90;99.90;;;;;;5069582;28;20036;-59
2021/03/28 07:21:18;;;;;;;6.47;2.63;;;8.00;99.90;;;;;;5049558;28;20544;-59
2021/03/28 07:24:18;;;;;;;3.50;1.77;;;8.10;99.90;;;;;;5059957;28;20028;-59
2021/03/28 07:27:04;;;;;;;4.20;2.03;;;8.20;99.90;;;;;;5059961;28;20043;-59
2021/03/28 07:30:37;;;;;;;4.13;2.10;;;8.20;99.90;;;;;;5048004;28;20044;-59
2021/03/28 07:33:46;;;;;;;3.35;1.85;;;8.40;99.90;;;;;;4989025;28;20046;-60
2021/03/28 07:36:39;;;;;;;3.13;1.90;;;8.50;99.90;;;;;;5047028;28;20487;-59
2021/03/28 07:39:05;;;;;;;4.13;1.70;;;8.40;99.90;;;;;;5056186;28;20375;-59
2021/03/28 07:41:41;;;;;;;5.18;1.92;;;8.00;99.90;;;;;;5048192;28;20021;-60
2021/03/28 07:44:55;;;;;;;2.53;1.30;;;8.30;99.90;;;;;;5053066;28;20025;-60
2021/03/28 07:47:52;;;;;;;2.85;1.40;;;8.60;99.90;;;;;;5057852;28;20041;-59
2021/03/28 07:50:21;;;;;;;2.40;1.40;;;8.80;99.90;;;;;;5064706;28;20162;-59
2021/03/28 07:53:21;;;;;;;2.00;1.35;;;9.00;99.90;;;;;;5048161;28;20025;-60
2021/03/28 07:56:15;;;;;;;2.38;1.40;;;8.90;99.90;;;;;;5048808;28;20040;-60
2021/03/28 07:59:01;;;;;;;5.20;1.40;;;9.00;99.90;;;;;;5050546;28;20037;-60
2021/03/28 08:01:55;;;;;;;3.55;1.70;;;9.10;99.90;;;;;;5052783;28;20104;-58
2021/03/28 08:04:52;;;;;;;3.00;1.75;;;9.10;99.90;;;;;;5054970;28;20028;-58
2021/03/28 08:07:27;;;;;;;4.90;1.88;;;9.00;99.90;;;;;;5068178;28;20503;-58
2021/03/28 08:10:07;;;;;;;4.75;1.80;;;9.10;99.90;;;;;;5052727;28;20040;-58
2021/03/28 08:12:45;;;;;;;3.22;1.77;;;9.20;99.90;;;;;;5050414;28;20033;-59
2021/03/28 08:15:39;;;;;;;3.42;1.58;;;9.20;99.90;;;;;;5058691;28;20491;-58
2021/03/28 08:18:14;;;;;;;4.72;1.83;;;9.20;99.90;;;;;;5046784;28;20098;-58
2021/03/28 08:20:52;;;;;;;3.88;1.70;;;9.20;99.90;;;;;;5047041;28;20044;-58
2021/03/28 08:23:36;;;;;;;3.05;1.80;;;9.20;99.90;;;;;;5047920;28;20518;-58
2021/03/28 08:26:42;;;;;;;4.13;1.60;;;9.20;99.90;;;;;;5047649;28;20507;-58
2021/03/28 08:29:11;;;;;;;3.33;1.60;;;9.30;99.90;;;;;;5047866;28;20040;-58
2021/03/28 08:31:55;;;;;;;4.68;2.25;;;9.30;99.90;;;;;;5058307;28;20027;-58
2021/03/28 08:34:42;;;;;;;4.68;2.33;;;9.30;99.90;;;;;;5065903;28;20082;-58
2021/03/28 08:37:27;;;;;;;3.65;1.77;;;9.20;99.90;;;;;;5058892;28;20036;-57
2021/03/28 08:40:16;;;;;;;2.83;1.60;;;9.30;99.90;;;;;;5047780;28;20052;-58
2021/03/28 08:43:00;;;;;;;5.15;2.20;;;9.50;99.90;;;;;;5049696;28;20029;-58
2021/03/28 08:45:48;;;;;;;6.20;1.75;;;9.60;99.90;;;;;;5061288;28;20028;-58
2021/03/28 08:48:23;;;;;;;3.47;1.20;;;9.70;99.90;;;;;;5068117;28;20356;-58
2021/03/28 08:51:44;;;;;;;2.08;1.10;;;9.80;99.90;;;;;;5066456;28;20033;-59
2021/03/28 08:54:36;;;;;;;4.32;1.38;;;9.80;99.90;;;;;;5042449;28;20543;-58
2021/03/28 08:57:35;;;;;;;1.80;1.13;;;9.80;99.90;;;;;;5055927;28;20036;-59
2021/03/28 09:00:01;;;;;;;2.83;1.20;;;10.00;99.90;;;;;;5048732;28;20088;-58
2021/03/28 09:02:38;;;;;;;1.38;0.90;;;10.10;99.50;;;;;;5061204;28;20143;-58
2021/03/28 09:05:18;;;;;;;2.40;0.90;;;10.20;99.90;;;;;;5067326;28;20050;-59
2021/03/28 09:07:56;;;;;;;1.58;0.73;;;10.40;99.90;;;;;;5054341;28;20033;-58
2021/03/28 09:10:34;;;;;;;0.75;0.60;;;10.60;99.90;;;;;;5046840;28;20021;-58
2021/03/28 09:13:24;;;;;;;1.35;0.60;;;10.60;99.90;;;;;;5046559;28;20029;-59
2021/03/28 09:15:53;;;;;;;1.10;0.60;;;10.70;99.30;;;;;;5046924;28;20021;-58
2021/03/28 09:19:16;;;;;;;1.20;0.52;;;10.80;99.20;;;;;;5046930;28;20511;-58
2021/03/28 09:22:09;;;;;;;1.60;0.70;;;10.80;99.70;;;;;;5044593;28;20033;-58
2021/03/28 09:24:48;;;;;;;1.35;1.05;;;10.90;99.00;;;;;;5044781;28;20036;-58
2021/03/28 09:27:29;;;;;;;0.55;0.47;;;10.90;99.00;;;;;;5046448;28;20033;-58
2021/03/28 09:30:00;;;;;;;1.00;0.60;;;10.90;99.30;;;;;;5046968;28;20460;-58
2021/03/28 09:32:26;;;;;;;1.85;0.50;;;11.10;97.80;;;;;;5046767;28;20475;-58
2021/03/28 09:35:10;;;;;;;0.68;0.50;;;11.00;98.60;;;;;;5047387;28;20028;-58
2021/03/28 09:37:47;;;;;;;1.77;0.60;;;11.00;97.40;;;;;;5045718;28;20033;-57
2021/03/28 09:40:51;;;;;;;1.48;0.82;;;11.00;97.00;;;;;;5045599;28;20287;-57
2021/03/28 09:43:42;;;;;;;0.80;0.50;;;11.20;97.20;;;;;;5058859;28;20052;-57
2021/03/28 09:46:20;;;;;;;0.50;0.50;;;11.40;98.50;;;;;;5049662;28;20036;-57
2021/03/28 09:49:30;;;;;;;0.90;0.50;;;11.30;96.60;;;;;;5046774;28;20099;-57
2021/03/28 09:52:17;;;;;;;0.82;0.50;;;11.20;96.50;;;;;;5045383;28;20037;-57
2021/03/28 09:54:55;;;;;;;0.57;0.57;;;11.40;96.70;;;;;;5048630;28;20103;-58
2021/03/28 09:57:36;;;;;;;0.52;0.50;;;11.40;96.70;;;;;;5064839;28;20025;-58
2021/03/28 10:00:29;;;;;;;1.13;0.60;;;11.60;96.40;;;;;;5064846;28;20449;-58
2021/03/28 10:03:04;;;;;;;0.73;0.40;;;11.50;96.20;;;;;;5056387;28;20033;-58
2021/03/28 10:05:35;;;;;;;0.77;0.60;;;11.50;95.40;;;;;;5044242;28;20083;-58
2021/03/28 10:08:15;;;;;;;0.65;0.52;;;11.50;95.40;;;;;;5045201;28;20056;-58
2021/03/28 10:10:52;;;;;;;0.88;0.63;;;11.60;95.30;;;;;;5045345;28;20040;-58
2021/03/28 10:13:39;;;;;;;1.50;0.57;;;11.80;95.90;;;;;;5045039;28;20025;-58
2021/03/28 10:16:15;;;;;;;1.48;0.60;;;12.10;97.20;;;;;;5044956;28;20436;-60
2021/03/28 10:18:50;;;;;;;1.70;0.50;;;12.40;96.60;;;;;;5045164;28;20384;-58
2021/03/28 10:21:46;;;;;;;1.00;0.50;;;12.30;94.90;;;;;;5045279;28;20025;-58
2021/03/28 10:24:55;;;;;;;0.85;0.47;;;12.40;93.60;;;;;;5049519;28;20029;-58
2021/03/28 10:27:33;;;;;;;0.73;0.60;;;12.40;94.00;;;;;;5059879;28;20032;-58
2021/03/28 10:30:35;;;;;;;1.75;0.88;;;12.20;93.30;;;;;;5066286;28;20040;-58
2021/03/28 10:33:21;;;;;;;1.63;0.82;;;12.00;93.30;;;;;;5066213;28;20485;-57
2021/03/28 10:36:05;;;;;;;1.35;0.75;;;12.20;94.10;;;;;;5066463;28;20036;-59
2021/03/28 10:38:39;;;;;;;2.78;0.90;;;12.60;92.70;;;;;;5045777;28;20074;-58
2021/03/28 10:41:11;;;;;;;1.65;0.80;;;12.50;92.70;;;;;;5046138;28;20021;-58
2021/03/28 10:43:51;;;;;;;1.25;0.63;;;12.40;93.10;;;;;;5061535;28;20111;-58
2021/03/28 10:46:32;;;;;;;0.95;0.63;;;12.50;92.30;;;;;;5066238;28;20102;-58
2021/03/28 10:49:27;;;;;;;2.08;0.70;;;12.70;91.60;;;;;;5047409;28;20112;-58
2021/03/28 10:52:18;;;;;;;1.17;0.70;;;12.80;92.50;;;;;;5049370;28;20499;-58
2021/03/28 10:55:14;;;;;;;1.05;0.50;;;12.90;91.40;;;;;;5050080;28;20116;-59
2021/03/28 10:57:58;;;;;;;1.27;0.52;;;13.10;92.90;;;;;;5049202;28;20021;-59
2021/03/28 11:00:39;;;;;;;;;;;13.40;91.50;;;;;;5061084;28;20025;-58
2021/03/28 11:03:28;;;;;;;1.70;1.02;;;13.10;91.10;;;;;;5054643;28;19909;-58
2021/03/28 11:06:12;;;;;;;2.70;1.20;;;13.10;90.50;;;;;;5057754;28;20032;-58
2021/03/28 11:08:44;;;;;;;2.00;1.10;;;13.30;90.70;;;;;;5067661;28;20040;-58
2021/03/28 11:11:46;;;;;;;1.52;0.90;;;13.70;91.90;;;;;;5049860;28;20021;-57
2021/03/28 11:14:18;;;;;;;1.23;0.70;;;13.90;91.30;;;;;;5050044;28;20025;-58
2021/03/28 11:16:50;;;;;;;1.83;0.70;;;14.20;90.50;;;;;;5049772;28;20055;-59
2021/03/28 11:19:50;;;;;;;1.45;0.70;;;14.10;90.90;;;;;;5048843;28;20085;-58
2021/03/28 11:22:34;;;;;;;1.55;0.63;;;14.50;91.30;;;;;;5049847;28;20092;-58
2021/03/28 11:25:00;;;;;;;1.83;0.70;;;14.30;90.60;;;;;;5049352;28;20028;-57
2021/03/28 11:27:50;;;;;;;1.02;0.80;;;14.40;89.90;;;;;;5051363;28;20032;-57
2021/03/28 11:30:31;;;;;;;1.48;0.70;;;14.60;90.70;;;;;;5057658;28;20479;-58
2021/03/28 11:33:03;;;;;;;1.92;1.00;;;14.60;89.80;;;;;;5050965;28;20024;-58
2021/03/28 11:35:48;;;;;;;2.83;0.90;;;14.60;90.50;;;;;;5056923;28;20509;-59
2021/03/28 11:38:17;;;;;;;2.90;1.60;;;14.50;87.90;;;;;;5069003;28;20098;-58
2021/03/28 11:41:11;;;;;;;2.10;0.80;;;14.30;88.40;;;;;;5048907;28;20041;-58
2021/03/28 11:43:42;;;;;;;4.60;1.40;;;14.70;89.90;;;;;;5063122;28;20040;-58
2021/03/28 11:46:31;;;;;;;2.65;1.30;;;14.70;88.00;;;;;;5068046;28;20346;-58
2021/03/28 11:48:57;;;;;;;1.30;0.90;;;14.80;87.40;;;;;;5068407;28;20040;-58
2021/03/28 11:51:36;;;;;;;2.17;1.20;;;15.00;87.50;;;;;;5063959;28;20013;-59
2021/03/28 11:54:11;;;;;;;1.25;0.70;;;15.20;86.50;;;;;;5048004;28;20051;-59
2021/03/28 11:57:05;;;;;;;1.45;0.93;;;15.40;85.50;;;;;;5047381;28;20439;-58
2021/03/28 11:59:43;;;;;;;3.72;1.42;;;15.40;85.70;;;;;;5051074;28;20021;-58
2021/03/28 12:02:12;;;;;;;3.35;1.20;;;15.40;85.70;;;;;;5056166;28;20021;-58
2021/03/28 12:04:39;;;;;;;3.30;1.30;;;15.90;87.40;;;;;;5055270;28;20112;-59
2021/03/28 12:07:33;;;;;;;2.25;0.88;;;16.00;82.80;;;;;;5052216;28;20044;-59
2021/03/28 12:09:58;;;;;;;4.97;2.10;;;16.10;83.20;;;;;;5065616;28;20250;-59
2021/03/28 12:12:37;;;;;;;3.95;1.63;;;16.00;83.50;;;;;;5052181;28;20091;-59
2021/03/28 12:15:40;;;;;;;3.15;1.40;;;16.40;82.40;;;;;;5072358;28;20069;-58
2021/03/28 12:18:24;;;;;;;4.40;1.65;;;16.60;81.90;;;;;;5077112;28;20028;-59
2021/03/28 12:20:59;;;;;;;2.37;1.10;;;16.50;81.00;;;;;;5067232;28;20052;-52
2021/03/28 12:23:55;;;;;;;2.70;1.02;;;16.60;81.30;;;;;;5048974;28;20323;-52
2021/03/28 12:26:36;;;;;;;4.05;1.15;;;16.50;80.40;;;;;;5046559;28;20025;-49
2021/03/28 12:29:17;;;;;;;1.55;1.00;;;16.60;80.20;;;;;;5046817;28;20056;-49
2021/03/28 12:31:51;;;;;;;2.00;0.90;;;16.90;79.00;;;;;;5053216;28;20024;-48
2021/03/28 12:34:35;;;;;;;2.13;0.90;;;16.90;78.50;;;;;;5060302;28;20026;-51
2021/03/28 12:37:12;;;;;;;1.83;0.90;;;17.10;78.60;;;;;;5051924;28;20052;-50
2021/03/28 12:39:41;;;;;;;0.77;0.70;;;17.10;77.80;;;;;;5059825;28;20307;-48
2021/03/28 12:42:26;;;;;;;2.00;1.13;;;17.30;77.90;;;;;;5059437;28;20090;-50
2021/03/28 12:45:12;;;;;;;2.50;1.25;;;17.20;77.80;;;;;;5052839;28;20029;-51
2021/03/28 12:47:57;;;;;;;2.30;1.05;;;17.00;77.80;;;;;;5049803;28;20028;-49
2021/03/28 12:50:26;;;;;;;;;;;17.50;78.80;;;;;;5046977;28;20534;-49
2021/03/28 12:53:01;;;;;;;1.73;0.80;;;18.00;76.40;;;;;;5044555;28;19935;-52
2021/03/28 12:55:30;;;;;;;1.23;0.80;;;17.80;75.30;;;;;;5044362;28;20052;-51
2021/03/28 12:58:08;;;;;;;2.30;1.23;;;18.10;75.70;;;;;;5044223;28;20033;-52
2021/03/28 13:00:55;;;;;;;2.88;0.80;;;18.20;74.30;;;;;;5049711;28;20787;-53
2021/03/28 13:03:43;;;;;;;1.27;0.77;;;18.40;73.90;;;;;;5057127;28;20064;-52
2021/03/28 13:06:17;;;;;;;1.38;0.80;;;18.50;76.20;;;;;;5053888;28;20036;-52
2021/03/28 13:09:00;;;;;;;1.25;0.75;;;18.70;74.90;;;;;;5048781;28;20029;-53
2021/03/28 13:11:37;;;;;;;1.77;0.73;;;18.40;72.40;;;;;;5063805;28;20032;-53
2021/03/28 13:14:06;;;;;;;2.10;0.65;;;18.60;74.40;;;;;;5051813;28;20025;-53
2021/03/28 13:16:34;;;;;;;1.33;0.70;;;18.80;72.80;;;;;;5045179;28;20059;-53
2021/03/28 13:19:01;;;;;;;1.08;0.70;;;19.00;74.00;;;;;;5045342;28;20060;-53
2021/03/28 13:21:34;;;;;;;1.20;0.70;;;19.10;72.40;;;;;;5048277;28;20082;-53
2021/03/28 13:24:06;;;;;;;0.70;0.70;;;19.20;72.00;;;;;;5064691;28;20051;-51
2021/03/28 13:26:37;;;;;;;2.53;1.08;;;18.90;70.00;;;;;;5050211;28;20021;-52
2021/03/28 13:29:12;;;;;;;1.10;0.80;;;18.40;70.30;;;;;;5055164;28;20463;-52
2021/03/28 13:31:41;;;;;;;2.08;1.23;;;18.60;72.20;;;;;;5045634;28;20113;-52
2021/03/28 13:34:45;;;;;;;1.20;1.00;;;18.80;69.80;;;;;;5045099;28;20107;-51
2021/03/28 13:37:30;;;;;;;1.33;0.80;;;18.70;70.60;;;;;;5069897;28;20039;-52
2021/03/28 13:40:11;;;;;;;1.58;0.70;;;19.20;70.70;;;;;;5053303;28;20037;-53
2021/03/28 13:42:41;;;;;;;0.75;0.63;;;19.70;71.50;;;;;;5058468;28;20044;-53
2021/03/28 13:45:16;;;;;;;0.75;0.60;;;19.90;68.30;;;;;;5057145;28;20024;-52
2021/03/28 13:47:46;;;;;;;1.85;0.80;;;20.10;68.00;;;;;;5058145;28;20451;-51
2021/03/28 13:50:20;;;;;;;0.93;0.70;;;20.10;68.10;;;;;;5057664;28;20053;-51
2021/03/28 13:52:47;;;;;;;1.02;0.70;;;20.00;66.00;;;;;;5049139;28;20029;-52
2021/03/28 13:55:43;;;;;;;1.27;0.70;;;20.20;66.20;;;;;;5046625;28;20025;-53
2021/03/28 13:58:31;;;;;;;1.88;0.75;;;20.30;66.20;;;;;;5045525;28;20037;-50
2021/03/28 14:01:36;;;;;;;3.47;1.40;;;20.20;66.30;;;;;;5044645;28;20045;-52
2021/03/28 14:04:32;;;;;;;2.08;1.13;;;19.60;66.30;;;;;;5045454;28;20033;-53
2021/03/28 14:07:21;;;;;;;2.58;1.10;;;20.20;67.40;;;;;;5060441;28;20403;-49
2021/03/28 14:10:04;;;;;;;1.40;1.00;;;20.40;67.30;;;;;;5049049;28;20495;-52
2021/03/28 14:12:37;;;;;;;1.67;1.05;;;20.20;64.80;;;;;;5045286;28;20025;-50
2021/03/28 14:15:22;;;;;;;1.92;1.40;;;20.00;65.00;;;;;;5055824;28;20021;-53
2021/03/28 14:17:59;;;;;;;2.17;1.30;;;20.40;64.60;;;;;;5047339;28;20115;-51
2021/03/28 14:20:33;;;;;;;3.15;1.45;;;20.50;63.50;;;;;;5054918;28;20502;-50
2021/03/28 14:23:03;;;;;;;;;;;20.50;64.30;;;;;;5063359;28;20387;-53